Fordland, Missouri
Current Conditions -  °F | °C
As of 7:55 AM on Wednesday 26 Nov 2014 (Local Time) from KSGF Reporting Station
Light Snow Light Snow  
Wind Chill: 30°   Ceiling: 2700
Heat Index: 36°   Visibility: 1.7mi
Dew Point: 26°   Wind: 8mph
Humidity: 67%   Direction: 290°WNW
Pressure: 30"   Gusts: NA
Location:  37.16°N, 92.94°W
Report Text: KSGF 261355Z 29007KT 1 3/4SM -SN BKN027 BKN042 OVC050 02/M03 A3000 RMK AO2 P0000 T00221033
Loading
Personal Weather Stations






























Interactive Weather Map New forecast layout! Learn more

10-Day Weather Forecast

Advertisements
Track Severe Weather on mobile